Time;durP1;ratioP1;P1;durP2;ratioP2;P2;SDS_P1;SDS_P2;PMS_P1;PMS_P2;Temp;Humidity;BMP_temperature;BMP_pressure;BME280_temperature;BME280_humidity;BME280_pressure;Samples;Min_cycle;Max_cycle;Signal;HPM_P1;HPM_P2
2022/05/12 00:00:20;;;;;;;3.07;2.10;;;23.90;58.20;;;;;;5059937;28;20158;-94
2022/05/12 00:06:08;;;;;;;4.93;2.20;;;23.90;58.00;;;;;;5059076;28;20200;-94
2022/05/12 00:08:35;;;;;;;6.30;2.37;;;23.80;58.20;;;;;;5052105;28;20191;-92
2022/05/12 00:11:01;;;;;;;4.50;1.70;;;23.80;58.50;;;;;;5045589;28;20486;-94
2022/05/12 00:13:27;;;;;;;4.87;1.87;;;23.80;58.90;;;;;;5043069;28;20618;-93
2022/05/12 00:15:54;;;;;;;6.73;2.60;;;23.70;58.60;;;;;;5045079;28;20203;-93
2022/05/12 00:18:20;;;;;;;2.33;1.60;;;23.70;58.80;;;;;;5043324;28;20239;-92
2022/05/12 00:20:45;;;;;;;2.83;1.60;;;23.70;58.60;;;;;;5042873;28;20173;-93
2022/05/12 00:23:21;;;;;;;3.03;1.70;;;23.70;58.40;;;;;;5041895;28;20193;-93
2022/05/12 00:25:48;;;;;;;4.00;2.60;;;23.70;58.40;;;;;;5047175;28;20245;-93
2022/05/12 00:28:16;;;;;;;2.77;2.13;;;23.70;58.70;;;;;;5050630;28;20174;-93
2022/05/12 00:30:46;;;;;;;5.20;3.10;;;23.70;58.50;;;;;;5051645;28;20917;-93
2022/05/12 00:33:13;;;;;;;2.47;1.70;;;23.70;58.90;;;;;;5051712;28;20188;-93
2022/05/12 00:35:42;;;;;;;3.20;2.20;;;23.70;58.70;;;;;;5050053;28;20203;-93
2022/05/12 00:38:08;;;;;;;6.90;3.70;;;23.70;58.70;;;;;;5050330;28;20181;-93
2022/05/12 00:40:35;;;;;;;5.47;2.90;;;23.70;58.60;;;;;;5050767;28;20181;-93
2022/05/12 00:43:07;;;;;;;4.60;3.30;;;23.70;58.70;;;;;;5049488;28;20456;-94
2022/05/12 00:45:36;;;;;;;5.53;3.50;;;23.60;59.20;;;;;;5042833;28;20181;-94
2022/05/12 00:48:03;;;;;;;3.17;1.87;;;23.60;59.30;;;;;;5041678;28;20195;-95
2022/05/12 00:50:43;;;;;;;3.37;3.03;;;23.60;59.20;;;;;;5042037;28;20208;-94
2022/05/12 00:53:11;;;;;;;4.27;2.50;;;23.60;59.00;;;;;;5040482;28;20169;-94
2022/05/12 00:55:40;;;;;;;4.23;2.47;;;23.60;59.00;;;;;;5043213;28;20174;-94
2022/05/12 00:58:10;;;;;;;5.40;3.10;;;23.60;59.00;;;;;;5041248;28;20218;-94
2022/05/12 01:00:37;;;;;;;3.53;2.10;;;23.60;59.30;;;;;;5042308;28;20181;-93
2022/05/12 01:03:15;;;;;;;2.47;1.70;;;23.50;59.50;;;;;;5042674;28;20228;-94
2022/05/12 01:05:41;;;;;;;4.50;2.23;;;23.50;59.40;;;;;;5042029;28;20282;-94
2022/05/12 01:08:11;;;;;;;4.10;1.53;;;23.50;59.40;;;;;;5040464;28;20182;-93
2022/05/12 01:10:39;;;;;;;2.83;2.00;;;23.50;59.60;;;;;;5040673;28;20205;-94
2022/05/12 01:13:05;;;;;;;5.77;2.00;;;23.50;59.60;;;;;;5038585;28;20176;-93
2022/05/12 01:15:31;;;;;;;4.33;2.40;;;23.40;59.60;;;;;;5042836;28;20180;-93
2022/05/12 01:18:06;;;;;;;5.23;2.47;;;23.40;59.70;;;;;;5048184;28;20268;-93
2022/05/12 01:20:33;;;;;;;3.47;1.97;;;23.30;59.80;;;;;;5047239;28;20180;-93
2022/05/12 01:23:29;;;;;;;6.50;2.17;;;23.30;60.90;;;;;;5047410;28;20199;-93
2022/05/12 01:26:05;;;;;;;5.10;2.40;;;23.10;61.30;;;;;;5049151;28;20236;-93
2022/05/12 01:28:35;;;;;;;3.87;1.93;;;23.10;61.30;;;;;;5053299;28;20163;-93
2022/05/12 01:31:29;;;;;;;3.23;1.93;;;23.00;61.50;;;;;;5053282;28;20212;-93
2022/05/12 01:34:08;;;;;;;3.07;1.60;;;23.10;61.30;;;;;;5052894;28;20173;-93
2022/05/12 01:36:42;;;;;;;4.17;2.10;;;23.00;61.20;;;;;;5057317;28;20177;-93
2022/05/12 01:39:27;;;;;;;4.23;1.97;;;23.10;60.90;;;;;;5041985;28;20180;-93
2022/05/12 01:45:58;;;;;;;1.97;1.70;;;23.10;60.50;;;;;;5058236;28;20190;-93
2022/05/12 01:49:03;;;;;;;4.40;1.97;;;23.10;60.60;;;;;;5008132;28;20199;-93
2022/05/12 01:52:02;;;;;;;3.20;2.00;;;23.00;60.40;;;;;;5043416;28;20185;-94
2022/05/12 01:54:29;;;;;;;2.63;1.77;;;23.00;60.40;;;;;;5053929;28;20177;-94
2022/05/12 01:56:55;;;;;;;6.23;2.20;;;23.00;60.40;;;;;;5050791;28;20212;-94
2022/05/12 01:59:22;;;;;;;3.20;1.60;;;23.00;60.40;;;;;;5049231;28;20173;-94
2022/05/12 02:01:48;;;;;;;4.87;2.10;;;22.90;60.40;;;;;;5048565;28;20169;-94
2022/05/12 02:04:14;;;;;;;3.27;1.90;;;22.80;60.70;;;;;;5047088;28;20180;-94
2022/05/12 02:06:40;;;;;;;4.17;1.93;;;22.70;60.70;;;;;;5050273;28;20186;-93
2022/05/12 02:09:08;;;;;;;2.30;1.50;;;22.70;60.50;;;;;;5047656;28;20208;-93
2022/05/12 02:11:36;;;;;;;5.50;1.70;;;22.70;60.20;;;;;;5049424;28;20215;-94
2022/05/12 02:14:04;;;;;;;3.90;1.90;;;22.70;61.00;;;;;;5047710;28;20176;-94
2022/05/12 02:16:31;;;;;;;4.40;1.90;;;22.70;60.40;;;;;;5050425;28;20180;-94
2022/05/12 02:18:56;;;;;;;4.37;1.60;;;22.70;60.30;;;;;;5046722;28;20190;-94
2022/05/12 02:21:38;;;;;;;3.70;1.70;;;22.60;59.80;;;;;;5049599;28;20177;-94
2022/05/12 02:24:43;;;;;;;6.33;1.80;;;22.60;59.90;;;;;;5053629;28;20169;-93
2022/05/12 02:27:16;;;;;;;4.73;1.70;;;22.60;60.20;;;;;;5052652;28;20179;-95
2022/05/12 02:30:09;;;;;;;2.80;1.60;;;22.50;60.20;;;;;;5037214;28;20204;-93
2022/05/12 02:32:40;;;;;;;2.83;1.40;;;22.60;59.90;;;;;;5048885;28;20196;-93
2022/05/12 02:35:16;;;;;;;4.57;1.80;;;22.50;60.20;;;;;;5050834;28;20180;-93
2022/05/12 02:37:58;;;;;;;4.40;1.93;;;22.50;59.90;;;;;;5048796;28;20217;-94
2022/05/12 02:40:28;;;;;;;2.93;1.57;;;22.50;59.90;;;;;;5047018;28;20215;-93
2022/05/12 02:42:56;;;;;;;3.47;1.63;;;22.50;59.90;;;;;;5034181;28;20189;-93
2022/05/12 02:45:29;;;;;;;3.40;1.70;;;22.50;59.90;;;;;;5049694;28;20197;-93
2022/05/12 02:48:19;;;;;;;5.07;1.50;;;22.50;59.70;;;;;;5048954;28;20253;-93
2022/05/12 02:51:01;;;;;;;3.80;1.70;;;22.50;59.90;;;;;;5048131;28;20293;-93
2022/05/12 02:53:51;;;;;;;3.00;1.50;;;22.50;59.80;;;;;;5050809;28;20176;-93
2022/05/12 02:56:23;;;;;;;2.80;1.30;;;22.40;59.80;;;;;;5047544;28;20206;-93
2022/05/12 02:58:49;;;;;;;4.43;1.50;;;22.40;59.70;;;;;;5045938;28;20291;-94
2022/05/12 03:01:14;;;;;;;2.87;1.50;;;22.40;59.90;;;;;;5045960;28;20226;-94
2022/05/12 03:03:42;;;;;;;5.20;1.53;;;22.30;59.90;;;;;;5044265;28;20172;-94
2022/05/12 03:06:08;;;;;;;2.57;1.60;;;22.30;59.80;;;;;;5044995;28;20193;-94
2022/05/12 03:08:34;;;;;;;2.37;1.60;;;22.30;59.80;;;;;;5045606;28;20542;-94
2022/05/12 03:11:00;;;;;;;2.67;1.37;;;22.30;59.90;;;;;;5046225;28;20308;-94
2022/05/12 03:13:31;;;;;;;2.97;1.57;;;22.30;59.80;;;;;;5046191;28;20245;-94
2022/05/12 03:15:57;;;;;;;2.83;1.50;;;22.30;59.70;;;;;;5044273;28;20167;-94
2022/05/12 03:18:25;;;;;;;3.47;1.50;;;22.20;59.70;;;;;;5040304;28;20179;-94
2022/05/12 03:20:50;;;;;;;3.03;1.50;;;22.20;59.70;;;;;;5044394;28;20192;-94
2022/05/12 03:23:18;;;;;;;2.67;1.20;;;22.20;59.80;;;;;;5047149;28;20173;-94
2022/05/12 03:25:44;;;;;;;3.30;1.67;;;22.20;59.70;;;;;;5047079;28;20639;-94
2022/05/12 03:28:11;;;;;;;2.80;1.57;;;22.10;59.90;;;;;;5046540;28;20177;-94
2022/05/12 03:30:36;;;;;;;3.27;1.50;;;22.10;60.20;;;;;;5048687;28;20201;-94
2022/05/12 03:33:02;;;;;;;3.80;1.80;;;22.00;60.30;;;;;;5048200;28;20192;-95
2022/05/12 03:35:28;;;;;;;3.43;1.67;;;22.00;60.50;;;;;;5047823;28;20240;-94
2022/05/12 03:37:54;;;;;;;4.00;1.60;;;21.90;60.50;;;;;;5048431;28;20189;-94
2022/05/12 03:40:22;;;;;;;3.13;1.60;;;21.90;60.70;;;;;;5048586;28;20190;-95
2022/05/12 03:42:50;;;;;;;2.57;1.30;;;21.80;60.30;;;;;;5047129;28;20184;-94
2022/05/12 03:45:16;;;;;;;2.53;1.40;;;21.80;60.70;;;;;;5045584;28;20179;-95
2022/05/12 03:47:47;;;;;;;2.77;1.70;;;21.70;60.80;;;;;;5045077;28;20250;-94
2022/05/12 03:50:16;;;;;;;4.43;1.93;;;21.70;61.10;;;;;;5044323;28;20216;-94
2022/05/12 03:52:42;;;;;;;4.50;2.20;;;21.70;60.70;;;;;;5044038;28;20487;-94
2022/05/12 03:55:13;;;;;;;4.40;2.13;;;21.70;60.70;;;;;;5044134;28;20188;-95
2022/05/12 03:57:41;;;;;;;3.87;1.93;;;21.70;60.80;;;;;;5046534;28;20177;-94
2022/05/12 04:00:10;;;;;;;3.77;1.97;;;21.70;60.60;;;;;;5047416;28;20177;-94
2022/05/12 04:02:36;;;;;;;4.87;2.00;;;21.60;60.70;;;;;;5046461;28;20177;-93
2022/05/12 04:05:04;;;;;;;4.27;2.13;;;21.60;60.80;;;;;;5047162;28;20176;-93
2022/05/12 04:07:31;;;;;;;4.93;2.20;;;21.60;60.60;;;;;;5046730;28;20171;-93
2022/05/12 04:10:06;;;;;;;3.67;2.10;;;21.60;60.40;;;;;;5045438;28;20207;-94
2022/05/12 04:12:33;;;;;;;3.70;2.00;;;21.60;60.60;;;;;;5046689;28;20172;-93
2022/05/12 04:15:01;;;;;;;3.23;1.97;;;21.60;60.40;;;;;;5050389;28;20180;-93
2022/05/12 04:17:27;;;;;;;3.13;1.80;;;21.60;60.50;;;;;;5046140;28;20267;-94
2022/05/12 04:19:53;;;;;;;3.73;2.00;;;21.50;60.40;;;;;;5046931;28;20181;-94
2022/05/12 04:22:23;;;;;;;2.33;1.80;;;21.50;60.60;;;;;;5048324;28;20181;-93
2022/05/12 04:24:54;;;;;;;3.67;2.00;;;21.40;60.90;;;;;;5046903;28;20242;-94
2022/05/12 04:27:21;;;;;;;3.60;2.10;;;21.40;61.10;;;;;;5047437;28;20187;-93
2022/05/12 04:29:47;;;;;;;3.07;2.13;;;21.40;61.00;;;;;;5047807;28;20269;-94
2022/05/12 04:32:13;;;;;;;3.27;1.90;;;21.40;60.90;;;;;;5046797;28;20224;-93
2022/05/12 04:37:30;;;;;;;3.87;2.10;;;21.40;60.70;;;;;;5047484;28;20172;-94
2022/05/12 04:40:04;;;;;;;5.00;2.10;;;21.50;60.40;;;;;;5030555;28;20204;-94
2022/05/12 04:42:29;;;;;;;5.03;2.30;;;21.60;60.20;;;;;;5030726;28;20177;-94
2022/05/12 04:44:55;;;;;;;3.93;1.80;;;21.60;60.20;;;;;;5030210;28;20192;-94
2022/05/12 04:47:21;;;;;;;3.03;2.30;;;21.60;60.00;;;;;;5030113;28;20275;-94
2022/05/12 04:49:47;;;;;;;3.33;1.93;;;21.70;59.90;;;;;;5029227;28;20211;-94
2022/05/12 04:52:13;;;;;;;4.00;2.27;;;21.70;59.80;;;;;;5026944;28;20249;-94
2022/05/12 04:54:38;;;;;;;3.30;2.10;;;21.70;59.70;;;;;;5028004;28;20344;-94
2022/05/12 04:57:06;;;;;;;3.80;2.00;;;21.80;59.60;;;;;;5027280;28;20188;-94
2022/05/12 04:59:33;;;;;;;5.37;2.30;;;21.80;59.30;;;;;;5026912;28;20180;-94
2022/05/12 05:01:59;;;;;;;6.43;2.47;;;21.90;59.50;;;;;;5026445;28;20193;-94
2022/05/12 05:04:24;;;;;;;3.83;2.03;;;21.90;59.30;;;;;;5027645;28;20218;-94
2022/05/12 05:06:50;;;;;;;3.50;2.27;;;22.00;59.10;;;;;;5026419;28;20193;-94
2022/05/12 05:09:16;;;;;;;2.20;1.50;;;22.00;58.90;;;;;;5026274;28;20173;-94
2022/05/12 05:11:42;;;;;;;1.73;1.33;;;22.10;58.80;;;;;;5026945;28;20235;-94
2022/05/12 05:14:07;;;;;;;2.57;1.40;;;22.20;58.60;;;;;;5023348;28;20271;-94
2022/05/12 05:16:33;;;;;;;2.40;1.70;;;22.30;58.40;;;;;;5025624;28;20195;-94
2022/05/12 05:18:59;;;;;;;2.47;1.63;;;22.40;58.30;;;;;;5024212;28;20199;-94
2022/05/12 05:21:25;;;;;;;2.17;1.70;;;22.50;58.30;;;;;;5022527;28;20176;-94
2022/05/12 05:23:50;;;;;;;2.83;1.30;;;22.60;58.00;;;;;;5026162;28;20190;-94
2022/05/12 05:26:16;;;;;;;5.60;2.10;;;22.70;57.80;;;;;;5020781;28;20184;-94
2022/05/12 05:28:42;;;;;;;2.03;1.50;;;22.70;57.60;;;;;;5020388;28;20176;-94
2022/05/12 05:31:07;;;;;;;2.37;1.47;;;22.80;57.30;;;;;;5018104;28;20209;-94
2022/05/12 05:33:33;;;;;;;;;;;22.90;57.10;;;;;;5027881;28;20382;-94
2022/05/12 05:35:58;;;;;;;;;;;23.00;56.60;;;;;;5031959;28;20166;-94
2022/05/12 05:38:24;;;;;;;;;;;23.10;56.30;;;;;;5031817;28;20149;-94
2022/05/12 05:40:50;;;;;;;3.65;1.85;;;23.20;56.30;;;;;;5029710;28;19982;-94
2022/05/12 05:43:16;;;;;;;8.20;2.00;;;23.30;56.00;;;;;;5034973;28;20343;-94
2022/05/12 05:45:42;;;;;;;2.10;1.30;;;23.40;55.70;;;;;;5036588;28;20240;-94
2022/05/12 05:48:08;;;;;;;6.13;1.47;;;23.50;55.20;;;;;;5037193;28;19952;-94
2022/05/12 05:53:25;;;;;;;4.10;1.70;;;23.60;54.90;;;;;;5038264;28;20217;-95
2022/05/12 05:55:57;;;;;;;5.93;2.60;;;23.80;54.60;;;;;;5037034;28;20167;-94
2022/05/12 05:58:24;;;;;;;4.37;1.30;;;24.00;54.30;;;;;;5039703;28;20170;-94
2022/05/12 06:00:50;;;;;;;3.60;1.63;;;24.30;53.50;;;;;;5035830;28;20182;-94
2022/05/12 06:03:17;;;;;;;2.80;1.63;;;24.60;53.10;;;;;;5037681;28;20231;-94
2022/05/12 06:05:44;;;;;;;3.73;2.50;;;24.80;52.40;;;;;;5034754;28;20316;-94
2022/05/12 06:08:12;;;;;;;4.30;1.40;;;25.10;52.00;;;;;;5035945;28;20172;-94
2022/05/12 06:10:38;;;;;;;2.53;1.40;;;25.20;51.40;;;;;;5030568;28;20534;-94
2022/05/12 06:13:05;;;;;;;4.30;1.83;;;25.40;51.00;;;;;;5032957;28;20260;-93
2022/05/12 06:15:34;;;;;;;4.60;1.57;;;25.50;50.80;;;;;;5035898;28;20235;-94
2022/05/12 06:17:59;;;;;;;5.37;1.60;;;25.60;50.60;;;;;;5039418;28;20184;-95
2022/05/12 06:20:25;;;;;;;3.93;1.43;;;25.70;50.30;;;;;;5040887;28;20176;-94
2022/05/12 06:22:51;;;;;;;2.53;1.40;;;25.80;50.10;;;;;;5040844;28;20177;-94
2022/05/12 06:25:18;;;;;;;2.63;1.43;;;25.90;49.90;;;;;;5035815;28;20240;-94
2022/05/12 06:27:45;;;;;;;3.70;1.43;;;26.10;49.70;;;;;;5036957;28;20177;-93
2022/05/12 06:30:12;;;;;;;3.93;1.50;;;26.20;49.50;;;;;;5040382;28;20434;-94
2022/05/12 06:32:42;;;;;;;4.33;1.77;;;26.20;49.30;;;;;;5038926;28;20188;-94
2022/05/12 06:35:09;;;;;;;3.57;1.53;;;26.30;49.20;;;;;;5036354;28;20176;-94
2022/05/12 06:37:36;;;;;;;4.83;1.57;;;26.40;49.10;;;;;;5040180;28;20183;-94
2022/05/12 06:40:02;;;;;;;;;;;26.40;49.00;;;;;;5040600;28;20177;-94
2022/05/12 06:42:28;;;;;;;;;;;26.40;48.90;;;;;;5036170;28;19905;-94
2022/05/12 06:44:54;;;;;;;;;;;26.40;48.90;;;;;;5034904;28;19987;-94
2022/05/12 06:47:20;;;;;;;;;;;26.40;48.80;;;;;;5034738;28;20010;-94
2022/05/12 06:49:50;;;;;;;3.65;1.50;;;26.40;48.70;;;;;;5035988;28;19951;-94
2022/05/12 06:52:16;;;;;;;2.60;1.50;;;26.50;48.70;;;;;;5050234;28;20168;-95
2022/05/12 06:54:41;;;;;;;3.80;1.80;;;26.30;48.90;;;;;;5052658;28;20204;-94
2022/05/12 06:57:09;;;;;;;3.37;1.80;;;26.10;49.10;;;;;;5051210;28;20160;-95
2022/05/12 06:59:39;;;;;;;3.37;1.70;;;25.90;49.30;;;;;;5051232;28;20272;-94
2022/05/12 07:02:07;;;;;;;3.00;1.53;;;25.80;49.70;;;;;;5054522;28;20177;-94
2022/05/12 07:04:33;;;;;;;3.23;1.90;;;25.60;49.80;;;;;;5055444;28;20251;-94
2022/05/12 07:06:59;;;;;;;3.87;1.57;;;25.60;49.90;;;;;;5055620;28;20257;-94
2022/05/12 07:09:25;;;;;;;2.13;1.40;;;25.80;49.70;;;;;;5054054;28;20187;-94
2022/05/12 07:11:52;;;;;;;2.35;1.65;;;25.90;49.50;;;;;;5054169;28;20220;-95
2022/05/12 07:14:17;;;;;;;4.50;1.70;;;26.20;49.20;;;;;;5051913;28;20183;-94
2022/05/12 07:16:46;;;;;;;3.13;1.50;;;26.00;49.30;;;;;;5055853;28;20201;-94
2022/05/12 07:19:15;;;;;;;4.17;1.50;;;25.90;49.50;;;;;;5055095;28;20165;-94
2022/05/12 07:27:11;;;;;;;1.77;1.37;;;25.60;49.60;;;;;;5036928;28;20450;-94
2022/05/12 07:29:37;;;;;;;3.13;1.43;;;25.40;49.90;;;;;;5033594;28;20439;-94
2022/05/12 07:32:04;;;;;;;3.03;1.40;;;25.30;50.00;;;;;;5037239;28;20584;-95
2022/05/12 07:34:30;;;;;;;3.50;1.97;;;25.50;50.00;;;;;;5018025;28;20173;-94
2022/05/12 07:36:56;;;;;;;3.23;1.50;;;25.50;50.10;;;;;;5019437;28;20165;-94
2022/05/12 07:39:29;;;;;;;2.33;1.47;;;25.80;49.70;;;;;;5016609;28;20272;-94
2022/05/12 07:41:57;;;;;;;2.88;1.52;;;26.00;49.30;;;;;;5016130;28;20678;-94
2022/05/12 07:44:31;;;;;;;2.90;1.45;;;26.10;49.10;;;;;;5015880;28;20510;-94
2022/05/12 07:47:00;;;;;;;2.67;1.40;;;26.10;49.00;;;;;;5019031;28;20187;-94
2022/05/12 07:49:28;;;;;;;3.45;1.30;;;26.30;48.90;;;;;;5015949;28;20380;-94
2022/05/12 07:51:54;;;;;;;1.67;1.33;;;26.20;48.80;;;;;;5021032;28;20220;-94
2022/05/12 07:54:21;;;;;;;2.50;1.20;;;26.10;48.90;;;;;;5020459;28;20287;-94
2022/05/12 07:56:46;;;;;;;1.60;1.40;;;25.90;49.20;;;;;;5021690;28;20549;-94
2022/05/12 07:59:12;;;;;;;3.77;1.50;;;25.80;49.20;;;;;;5019802;28;20211;-94
2022/05/12 08:01:38;;;;;;;2.28;1.23;;;25.70;49.40;;;;;;5026661;28;20537;-94
2022/05/12 08:04:05;;;;;;;2.50;1.20;;;25.90;49.20;;;;;;5007143;28;20220;-94
2022/05/12 08:06:32;;;;;;;2.72;1.45;;;26.10;49.00;;;;;;5020031;28;20308;-95
2022/05/12 08:08:57;;;;;;;4.10;1.42;;;26.10;49.00;;;;;;5022985;28;20239;-95
2022/05/12 08:11:24;;;;;;;2.58;1.63;;;26.10;48.90;;;;;;5022082;28;20212;-94
2022/05/12 08:13:50;;;;;;;1.83;1.30;;;26.20;48.90;;;;;;5022189;28;20564;-95
2022/05/12 08:16:17;;;;;;;2.55;1.60;;;26.20;48.70;;;;;;5023665;28;20195;-95
2022/05/12 08:18:45;;;;;;;2.20;1.23;;;26.20;48.70;;;;;;5023344;28;20203;-95
2022/05/12 08:21:14;;;;;;;2.20;1.33;;;25.90;48.90;;;;;;5022155;28;20177;-95
2022/05/12 08:23:40;;;;;;;3.93;1.50;;;25.70;49.10;;;;;;5029629;28;20173;-95
2022/05/12 08:26:07;;;;;;;3.40;1.40;;;25.60;49.20;;;;;;5029320;28;20200;-94
2022/05/12 08:28:32;;;;;;;3.20;1.80;;;25.60;49.50;;;;;;5029268;28;20246;-95
2022/05/12 08:31:06;;;;;;;2.60;1.40;;;25.60;49.30;;;;;;5045219;28;20201;-95
2022/05/12 08:33:33;;;;;;;1.50;1.10;;;25.60;49.40;;;;;;5033940;28;20264;-93
2022/05/12 08:35:59;;;;;;;2.08;1.27;;;25.70;49.30;;;;;;5036079;28;20169;-95
2022/05/12 08:38:25;;;;;;;1.35;1.25;;;25.80;49.20;;;;;;5044931;28;20173;-94
2022/05/12 08:41:03;;;;;;;2.33;1.40;;;25.90;49.10;;;;;;5040189;28;20208;-95
2022/05/12 08:43:44;;;;;;;2.35;1.40;;;25.90;49.00;;;;;;5043962;28;20207;-94
2022/05/12 08:46:39;;;;;;;2.00;1.30;;;25.80;49.10;;;;;;5042716;28;20203;-95
2022/05/12 08:49:17;;;;;;;3.70;1.45;;;25.80;49.10;;;;;;5031041;28;20492;-95
2022/05/12 08:51:46;;;;;;;2.38;1.23;;;25.70;49.20;;;;;;5038601;28;20416;-94
2022/05/12 08:54:21;;;;;;;3.23;1.23;;;25.60;49.40;;;;;;5040863;28;20376;-95
2022/05/12 08:56:53;;;;;;;2.60;1.40;;;25.60;49.40;;;;;;5041923;28;20245;-94
2022/05/12 08:59:18;;;;;;;1.88;1.17;;;25.60;49.40;;;;;;5036141;28;20179;-94
2022/05/12 09:01:59;;;;;;;1.83;1.30;;;25.60;49.40;;;;;;5035209;28;20172;-94
2022/05/12 09:04:43;;;;;;;2.10;1.23;;;25.50;49.40;;;;;;5037313;28;20552;-94
2022/05/12 09:07:27;;;;;;;2.93;1.60;;;25.40;49.60;;;;;;5036868;28;20552;-94
2022/05/12 09:10:24;;;;;;;2.13;1.30;;;25.40;49.30;;;;;;5036732;28;20173;-94
2022/05/12 09:13:16;;;;;;;3.85;1.80;;;25.50;49.50;;;;;;5035779;28;20185;-94
2022/05/12 09:15:52;;;;;;;2.27;1.30;;;25.50;49.20;;;;;;5038999;28;20468;-95
2022/05/12 09:18:22;;;;;;;2.33;1.30;;;25.50;49.20;;;;;;5036087;28;20187;-94
2022/05/12 09:20:48;;;;;;;2.67;1.20;;;25.40;49.40;;;;;;5039368;28;20421;-94
2022/05/12 09:23:14;;;;;;;2.93;1.30;;;25.40;49.30;;;;;;5038497;28;20180;-94
2022/05/12 09:26:20;;;;;;;2.57;1.33;;;25.50;49.30;;;;;;5039843;28;20256;-95
2022/05/12 09:28:46;;;;;;;1.83;1.30;;;25.40;49.20;;;;;;5039761;28;20261;-94
2022/05/12 09:31:11;;;;;;;1.60;1.13;;;25.40;49.10;;;;;;5051123;28;20242;-95
2022/05/12 09:33:38;;;;;;;2.33;1.40;;;25.40;49.30;;;;;;5049356;28;20188;-95
2022/05/12 09:36:25;;;;;;;2.70;1.30;;;25.40;49.00;;;;;;5049713;28;20378;-94
2022/05/12 09:38:54;;;;;;;1.27;1.10;;;25.40;49.30;;;;;;5050551;28;20181;-95
2022/05/12 09:41:41;;;;;;;3.08;1.70;;;25.40;49.10;;;;;;5050421;28;20184;-95
2022/05/12 09:44:25;;;;;;;2.47;1.67;;;25.50;49.10;;;;;;5047253;28;20252;-95
2022/05/12 09:47:11;;;;;;;1.80;1.30;;;25.50;48.50;;;;;;5041547;28;20207;-94
2022/05/12 09:49:40;;;;;;;1.55;1.02;;;25.40;49.10;;;;;;5039005;28;20184;-94
2022/05/12 09:52:26;;;;;;;2.08;1.30;;;25.40;49.10;;;;;;5033179;28;20176;-94
2022/05/12 09:55:08;;;;;;;1.90;1.38;;;25.50;49.10;;;;;;5050603;28;20165;-94
2022/05/12 09:57:35;;;;;;;1.67;1.43;;;25.50;49.00;;;;;;5047627;28;20238;-94
2022/05/12 10:00:07;;;;;;;2.27;1.40;;;25.50;49.10;;;;;;5041344;28;20212;-94
2022/05/12 10:08:28;;;;;;;1.83;1.47;;;25.40;49.00;;;;;;5048186;28;20196;-94
2022/05/12 10:11:00;;;;;;;1.57;1.30;;;25.40;48.90;;;;;;5050609;28;20205;-94
2022/05/12 10:13:40;;;;;;;2.63;1.40;;;25.40;49.00;;;;;;5053331;28;20177;-94
2022/05/12 10:16:08;;;;;;;2.53;1.60;;;25.40;48.90;;;;;;5043456;28;20164;-94
2022/05/12 10:18:43;;;;;;;1.70;1.40;;;25.40;48.90;;;;;;5045933;28;20196;-94
2022/05/12 10:21:37;;;;;;;2.50;1.50;;;25.40;48.80;;;;;;5045831;28;20172;-94
2022/05/12 10:24:03;;;;;;;2.50;1.40;;;25.40;48.90;;;;;;5051009;28;20197;-94
2022/05/12 10:26:38;;;;;;;3.47;1.77;;;25.40;48.90;;;;;;5048426;28;20232;-94
2022/05/12 10:29:07;;;;;;;2.03;1.70;;;25.40;48.80;;;;;;5052067;28;20236;-94
2022/05/12 10:31:34;;;;;;;2.03;1.77;;;25.40;48.80;;;;;;5044633;28;20221;-94
2022/05/12 10:34:06;;;;;;;2.37;1.60;;;25.40;48.80;;;;;;5044699;28;20228;-94
2022/05/12 10:36:34;;;;;;;2.30;1.60;;;25.40;48.70;;;;;;5050919;28;20173;-94
2022/05/12 10:39:30;;;;;;;3.57;2.00;;;25.40;48.70;;;;;;5049152;28;20188;-94
2022/05/12 10:42:17;;;;;;;2.77;1.97;;;25.40;48.70;;;;;;5052202;28;20185;-94
2022/05/12 10:45:24;;;;;;;2.97;1.63;;;25.30;48.60;;;;;;5053048;28;20225;-94
2022/05/12 10:48:07;;;;;;;2.53;1.50;;;25.30;48.60;;;;;;5049173;28;20185;-94
2022/05/12 10:50:55;;;;;;;1.77;1.63;;;25.40;48.60;;;;;;5047384;28;20362;-94
2022/05/12 10:53:49;;;;;;;3.73;1.70;;;25.40;48.60;;;;;;5052114;28;20275;-95
2022/05/12 10:56:23;;;;;;;2.07;1.60;;;25.40;48.50;;;;;;5051566;28;20257;-95
2022/05/12 10:59:14;;;;;;;4.07;1.80;;;25.40;48.50;;;;;;5050157;28;20351;-94
2022/05/12 11:01:55;;;;;;;3.37;2.00;;;25.40;48.50;;;;;;5052939;28;20185;-93
2022/05/12 11:05:05;;;;;;;1.73;1.60;;;25.40;48.50;;;;;;5050768;28;20349;-94
2022/05/12 11:07:39;;;;;;;5.77;2.63;;;25.40;48.50;;;;;;5032695;28;20173;-94
2022/05/12 11:10:14;;;;;;;3.10;1.70;;;25.40;48.10;;;;;;5057424;28;20228;-95
2022/05/12 11:12:45;;;;;;;3.60;2.20;;;25.40;48.30;;;;;;5056178;28;20153;-94
2022/05/12 11:18:41;;;;;;;2.43;1.77;;;25.40;48.40;;;;;;5054976;28;20181;-94
2022/05/12 11:21:27;;;;;;;3.03;2.00;;;25.40;48.20;;;;;;5054657;28;20169;-94
2022/05/12 11:24:05;;;;;;;2.33;1.60;;;25.40;48.20;;;;;;5058203;28;20238;-94
2022/05/12 11:26:42;;;;;;;2.93;2.00;;;25.40;48.50;;;;;;5058506;28;20153;-93
2022/05/12 11:38:57;;;;;;;5.50;2.27;;;25.40;48.30;;;;;;5060480;28;20207;-93
2022/05/12 11:41:32;;;;;;;2.40;1.70;;;25.40;47.60;;;;;;5058710;28;20237;-94
2022/05/12 11:44:49;;;;;;;2.53;1.70;;;25.40;48.00;;;;;;5059226;28;20148;-94
2022/05/12 11:47:58;;;;;;;3.87;2.43;;;25.30;47.90;;;;;;5002968;28;20251;-94
2022/05/12 11:50:29;;;;;;;4.83;2.23;;;25.30;47.60;;;;;;5002436;28;20206;-93
2022/05/12 11:53:20;;;;;;;3.00;2.20;;;25.30;47.70;;;;;;5003368;28;20158;-94
2022/05/12 11:56:13;;;;;;;3.07;1.97;;;25.30;47.30;;;;;;5001012;28;20202;-94
2022/05/12 11:58:45;;;;;;;2.13;1.57;;;25.30;47.80;;;;;;4997961;28;20250;-94
2022/05/12 12:01:14;;;;;;;2.33;1.60;;;25.30;48.00;;;;;;4998281;28;20186;-94
2022/05/12 12:04:08;;;;;;;2.27;1.80;;;25.30;48.10;;;;;;4994470;28;20178;-94
2022/05/12 12:06:44;;;;;;;5.63;1.77;;;25.30;48.00;;;;;;4996747;28;20182;-94
2022/05/12 12:09:31;;;;;;;2.50;1.70;;;25.40;48.10;;;;;;4997079;28;20169;-94
2022/05/12 12:12:03;;;;;;;3.03;2.00;;;25.40;48.10;;;;;;4993469;28;20210;-95
2022/05/12 12:14:50;;;;;;;2.70;1.67;;;25.40;47.40;;;;;;4996075;28;20182;-94
2022/05/12 12:17:24;;;;;;;2.53;1.80;;;25.40;48.00;;;;;;5008755;28;20180;-94
2022/05/12 12:19:53;;;;;;;2.23;1.57;;;25.40;47.00;;;;;;5055710;28;20164;-94
2022/05/12 12:22:40;;;;;;;2.37;1.80;;;25.40;47.10;;;;;;5048951;28;20208;-93
2022/05/12 12:25:08;;;;;;;4.00;1.70;;;25.30;46.10;;;;;;5042925;28;20168;-94
2022/05/12 12:27:52;;;;;;;2.77;1.83;;;25.30;47.00;;;;;;5041591;28;20279;-94
2022/05/12 12:30:25;;;;;;;3.03;1.60;;;25.30;47.00;;;;;;5037142;28;20205;-94
2022/05/12 12:33:13;;;;;;;2.67;1.70;;;25.30;46.90;;;;;;5040871;28;20201;-94
2022/05/12 12:36:08;;;;;;;3.10;1.60;;;25.30;46.60;;;;;;5033545;28;20173;-93
2022/05/12 12:38:49;;;;;;;2.03;1.50;;;25.40;46.40;;;;;;5046320;28;20169;-95
2022/05/12 12:41:28;;;;;;;4.90;1.93;;;25.40;47.80;;;;;;5046585;28;20184;-94
2022/05/12 12:44:07;;;;;;;1.80;1.33;;;25.40;47.40;;;;;;5054393;28;20189;-94
2022/05/12 12:46:43;;;;;;;4.37;1.60;;;25.40;47.70;;;;;;5051727;28;20169;-94
2022/05/12 12:49:29;;;;;;;1.80;1.50;;;25.40;47.60;;;;;;5053346;28;20192;-95
2022/05/12 12:52:04;;;;;;;1.87;1.30;;;25.40;47.50;;;;;;5050311;28;20220;-94
2022/05/12 12:57:23;;;;;;;3.20;1.70;;;25.30;46.40;;;;;;5047979;28;20200;-94
2022/05/12 13:00:06;;;;;;;2.43;1.50;;;25.30;47.20;;;;;;5049094;28;20253;-94
2022/05/12 13:02:41;;;;;;;2.93;1.70;;;25.30;47.50;;;;;;5051690;28;20240;-94
2022/05/12 13:05:21;;;;;;;3.13;1.47;;;25.40;47.40;;;;;;5055009;28;20252;-94
2022/05/12 13:08:01;;;;;;;3.40;1.60;;;25.30;47.40;;;;;;5051858;28;20152;-95
2022/05/12 13:10:28;;;;;;;3.83;1.70;;;25.30;47.30;;;;;;5049919;28;20215;-94
2022/05/12 13:13:08;;;;;;;1.97;1.47;;;25.30;47.30;;;;;;5054497;28;20193;-95
2022/05/12 13:15:39;;;;;;;3.77;1.70;;;25.30;47.20;;;;;;5052163;28;20180;-94
2022/05/12 13:18:08;;;;;;;3.27;1.70;;;25.20;46.60;;;;;;5051887;28;20179;-95
2022/05/12 13:20:41;;;;;;;3.60;1.60;;;25.20;46.60;;;;;;5050486;28;20177;-95
2022/05/12 13:23:32;;;;;;;3.83;1.90;;;25.30;47.20;;;;;;5048966;28;20211;-93
2022/05/12 13:26:02;;;;;;;3.00;1.50;;;25.30;46.90;;;;;;5045593;28;20196;-95
2022/05/12 13:28:30;;;;;;;4.23;1.60;;;25.30;46.40;;;;;;5054731;28;20187;-95
2022/05/12 13:31:35;;;;;;;2.80;1.93;;;25.30;47.20;;;;;;5054228;28;20212;-94
2022/05/12 13:34:13;;;;;;;2.13;1.30;;;25.20;46.50;;;;;;4995114;28;20199;-94
2022/05/12 13:36:42;;;;;;;3.30;1.80;;;25.20;46.70;;;;;;5054642;28;20248;-95
2022/05/12 13:39:32;;;;;;;2.60;1.50;;;25.30;46.90;;;;;;5055322;28;20169;-95
2022/05/12 13:42:02;;;;;;;2.40;1.40;;;25.30;46.50;;;;;;5038148;28;20199;-94
2022/05/12 13:44:29;;;;;;;3.80;1.60;;;25.30;47.10;;;;;;5037547;28;20180;-95
2022/05/12 13:47:02;;;;;;;3.33;1.80;;;25.30;45.90;;;;;;5037918;28;20188;-94
2022/05/12 13:49:40;;;;;;;3.97;1.60;;;25.30;46.20;;;;;;5038575;28;20236;-94
2022/05/12 13:52:46;;;;;;;3.07;1.50;;;25.30;46.40;;;;;;5039020;28;20208;-94
2022/05/12 13:55:30;;;;;;;3.90;1.80;;;25.30;46.30;;;;;;4980130;28;20198;-94